createdAt,value
2024-01-11T00:01:29.897Z,33.20
2024-01-11T00:03:38.262Z,32.90
2024-01-11T00:05:47.024Z,47.90
2024-01-11T00:07:55.526Z,38.80
2024-01-11T00:10:05.138Z,33.90
2024-01-11T00:12:13.677Z,29.90
2024-01-11T00:14:21.938Z,32.30
2024-01-11T00:16:30.164Z,32.00
2024-01-11T00:18:38.480Z,33.10
2024-01-11T00:20:46.962Z,31.10
2024-01-11T00:22:55.489Z,27.90
2024-01-11T00:25:04.260Z,29.10
2024-01-11T00:27:12.572Z,29.80
2024-01-11T00:29:20.856Z,27.40
2024-01-11T00:31:29.374Z,26.00
2024-01-11T00:33:37.694Z,25.20
2024-01-11T00:35:46.107Z,26.50
2024-01-11T00:37:54.414Z,25.40
2024-01-11T00:40:02.731Z,25.30
2024-01-11T00:42:11.053Z,25.60
2024-01-11T00:44:19.201Z,29.00
2024-01-11T00:46:27.399Z,30.10
2024-01-11T00:48:35.730Z,29.50
2024-01-11T00:50:44.080Z,28.10
2024-01-11T00:52:52.407Z,29.20
2024-01-11T00:55:00.678Z,28.60
2024-01-11T00:57:09.011Z,31.30
2024-01-11T00:59:17.310Z,28.70
2024-01-11T01:01:25.636Z,29.50
2024-01-11T01:03:33.997Z,31.30
2024-01-11T01:05:42.586Z,28.80
2024-01-11T01:07:51.073Z,26.10
2024-01-11T01:09:59.292Z,28.50
2024-01-11T01:12:08.950Z,27.50
2024-01-11T01:14:17.086Z,26.10
2024-01-11T01:16:25.332Z,25.70
2024-01-11T01:18:33.656Z,26.40
2024-01-11T01:20:42.140Z,26.40
2024-01-11T01:22:50.576Z,26.10
2024-01-11T01:24:58.957Z,28.20
2024-01-11T01:27:07.828Z,26.50
2024-01-11T01:29:16.842Z,28.00
2024-01-11T01:31:25.727Z,28.10
2024-01-11T01:33:34.316Z,29.90
2024-01-11T01:35:42.822Z,29.90
2024-01-11T01:37:51.218Z,28.40
2024-01-11T01:39:59.375Z,27.90
2024-01-11T01:42:08.481Z,26.80
2024-01-11T01:44:16.894Z,32.50
2024-01-11T01:46:27.277Z,30.20
2024-01-11T01:48:35.914Z,30.70
2024-01-11T01:50:46.863Z,29.00
2024-01-11T01:52:57.169Z,29.90
2024-01-11T01:55:07.898Z,28.50
2024-01-11T01:57:19.186Z,29.70
2024-01-11T01:59:29.118Z,28.00
2024-01-11T02:01:37.680Z,27.20
2024-01-11T02:03:47.907Z,27.70
2024-01-11T02:05:57.500Z,25.70
2024-01-11T02:08:10.536Z,26.90
2024-01-11T02:10:19.430Z,25.90
2024-01-11T02:12:27.756Z,25.70
2024-01-11T02:14:36.159Z,24.20
2024-01-11T02:16:44.733Z,24.30
2024-01-11T02:18:53.307Z,23.60
2024-01-11T02:21:01.976Z,22.70
2024-01-11T02:23:14.729Z,21.40
2024-01-11T02:25:23.043Z,25.20
2024-01-11T02:27:31.273Z,22.50
2024-01-11T02:29:39.569Z,23.30
2024-01-11T02:31:47.913Z,21.50
2024-01-11T02:33:58.276Z,22.30
2024-01-11T02:36:07.981Z,21.00
2024-01-11T02:38:16.231Z,21.20
2024-01-11T02:40:25.217Z,21.40
2024-01-11T02:42:33.380Z,20.30
2024-01-11T02:44:41.630Z,20.00
2024-01-11T02:46:49.786Z,22.40
2024-01-11T02:48:58.103Z,19.70
2024-01-11T02:51:07.123Z,18.80
2024-01-11T02:53:15.296Z,15.40
2024-01-11T02:55:24.316Z,17.30
2024-01-11T02:57:32.409Z,15.30
2024-01-11T02:59:42.437Z,17.80
2024-01-11T03:01:50.637Z,14.80
2024-01-11T03:03:59.279Z,13.60
2024-01-11T03:06:08.439Z,19.50
2024-01-11T03:08:16.777Z,19.20
2024-01-11T03:10:25.159Z,18.20
2024-01-11T03:12:33.736Z,15.90
2024-01-11T03:14:42.557Z,19.30
2024-01-11T03:16:50.869Z,16.80
2024-01-11T03:18:59.381Z,16.90
2024-01-11T03:21:08.009Z,14.80
2024-01-11T03:23:16.316Z,12.00
2024-01-11T03:25:24.580Z,9.80
2024-01-11T03:27:33.081Z,10.90
2024-01-11T03:29:41.511Z,12.30
2024-01-11T03:31:49.762Z,11.40
2024-01-11T03:33:58.273Z,12.00
2024-01-11T03:36:13.132Z,10.30
2024-01-11T03:38:21.428Z,10.20
2024-01-11T03:40:29.694Z,9.10
2024-01-11T03:42:37.844Z,8.50
2024-01-11T03:44:46.034Z,7.70
2024-01-11T03:46:54.267Z,8.60
2024-01-11T03:49:02.475Z,9.40
2024-01-11T03:51:10.952Z,7.80
2024-01-11T03:53:19.098Z,7.80
2024-01-11T03:55:27.226Z,9.00
2024-01-11T03:57:36.141Z,8.60
2024-01-11T03:59:44.318Z,8.90
2024-01-11T04:01:52.485Z,8.50
2024-01-11T04:04:00.681Z,8.50
2024-01-11T04:06:09.486Z,7.50
2024-01-11T04:08:17.749Z,8.10
2024-01-11T04:10:25.856Z,8.50
2024-01-11T04:12:33.950Z,7.70
2024-01-11T04:14:43.459Z,6.80
2024-01-11T04:16:51.658Z,8.90
2024-01-11T04:18:59.912Z,8.10
2024-01-11T04:21:08.621Z,8.80
2024-01-11T04:23:16.977Z,9.00
2024-01-11T04:25:25.465Z,8.60
2024-01-11T04:27:33.637Z,8.00
2024-01-11T04:29:42.558Z,9.10
2024-01-11T04:31:51.214Z,10.70
2024-01-11T04:33:59.346Z,10.20
2024-01-11T04:36:08.416Z,10.10
2024-01-11T04:38:16.600Z,8.70
2024-01-11T04:40:24.741Z,10.00
2024-01-11T04:42:32.858Z,10.20
2024-01-11T04:44:41.113Z,9.30
2024-01-11T04:46:49.303Z,9.70
2024-01-11T04:48:57.561Z,8.50
2024-01-11T04:51:06.188Z,11.70
2024-01-11T04:53:14.417Z,10.50
2024-01-11T04:55:22.540Z,9.90
2024-01-11T04:57:30.730Z,8.40
2024-01-11T04:59:39.285Z,10.60
2024-01-11T05:01:49.388Z,13.90
2024-01-11T05:03:57.566Z,12.10
2024-01-11T05:06:06.425Z,12.10
2024-01-11T05:08:14.580Z,11.30
2024-01-11T05:10:22.694Z,8.40
2024-01-11T05:12:30.808Z,8.10
2024-01-11T05:14:39.122Z,10.20
2024-01-11T05:16:47.437Z,12.10
2024-01-11T05:18:56.829Z,12.70
2024-01-11T05:21:05.845Z,8.70
2024-01-11T05:23:14.435Z,11.70
2024-01-11T05:25:22.679Z,12.00
2024-01-11T05:27:30.830Z,11.90
2024-01-11T05:29:39.204Z,11.80
2024-01-11T05:31:47.567Z,11.00
2024-01-11T05:33:55.917Z,11.40
2024-01-11T05:36:05.464Z,12.00
2024-01-11T05:38:13.618Z,13.60
2024-01-11T05:40:21.738Z,14.00
2024-01-11T05:42:30.200Z,16.40
2024-01-11T05:44:38.364Z,10.50
2024-01-11T05:46:46.534Z,10.30
2024-01-11T05:48:54.728Z,9.10
2024-01-11T05:51:03.122Z,8.50
2024-01-11T05:53:11.537Z,7.20
2024-01-11T05:55:20.029Z,6.80
2024-01-11T05:57:28.084Z,10.10
2024-01-11T05:59:36.322Z,10.90
2024-01-11T06:01:45.971Z,9.80
2024-01-11T06:03:54.070Z,8.50
2024-01-11T06:06:03.410Z,9.40
2024-01-11T06:08:12.025Z,9.80
2024-01-11T06:10:20.291Z,8.90
2024-01-11T06:12:29.153Z,9.90
2024-01-11T06:14:37.394Z,10.30
2024-01-11T06:16:46.300Z,10.40
2024-01-11T06:18:54.797Z,10.40
2024-01-11T06:21:03.099Z,8.90
2024-01-11T06:23:11.354Z,9.50
2024-01-11T06:25:20.021Z,11.70
2024-01-11T06:27:28.141Z,10.80
2024-01-11T06:29:36.285Z,7.00
2024-01-11T06:31:44.462Z,11.50
2024-01-11T06:33:52.649Z,9.20
2024-01-11T06:36:01.118Z,11.70
2024-01-11T06:38:10.056Z,12.40
2024-01-11T06:40:21.261Z,9.70
2024-01-11T06:42:29.352Z,8.80
2024-01-11T06:44:37.503Z,10.10
2024-01-11T06:46:45.676Z,10.40
2024-01-11T06:48:53.866Z,7.20
2024-01-11T06:51:02.637Z,11.70
2024-01-11T06:53:11.096Z,10.70
2024-01-11T06:55:19.477Z,10.60
2024-01-11T06:57:27.874Z,9.30
2024-01-11T06:59:36.602Z,8.00
2024-01-11T07:01:44.685Z,9.10
2024-01-11T07:03:53.384Z,9.20
2024-01-11T07:06:01.653Z,8.40
2024-01-11T07:08:10.114Z,6.70
2024-01-11T07:10:18.595Z,8.80
2024-01-11T07:12:27.060Z,8.30
2024-01-11T07:14:35.179Z,8.20
2024-01-11T07:16:43.690Z,10.00
2024-01-11T07:18:52.063Z,11.20
2024-01-11T07:21:02.213Z,9.50
2024-01-11T07:23:10.390Z,9.40
2024-01-11T07:25:18.653Z,8.60
2024-01-11T07:27:27.002Z,9.60
2024-01-11T07:29:36.487Z,8.40
2024-01-11T07:31:44.881Z,8.40
2024-01-11T07:34:05.117Z,9.80
2024-01-11T07:36:14.936Z,10.10
2024-01-11T07:38:23.107Z,8.70
2024-01-11T07:40:33.709Z,5.80
2024-01-11T07:42:44.073Z,12.50
2024-01-11T07:44:52.508Z,10.20
2024-01-11T07:47:02.277Z,12.00
2024-01-11T07:49:11.607Z,10.30
2024-01-11T07:51:21.017Z,9.00
2024-01-11T07:53:29.273Z,9.80
2024-01-11T07:55:38.801Z,9.40
2024-01-11T07:57:47.199Z,7.40
2024-01-11T07:59:56.956Z,7.70
2024-01-11T08:02:07.219Z,8.30
2024-01-11T08:04:15.381Z,8.50
2024-01-11T08:06:23.557Z,7.30
2024-01-11T08:08:31.827Z,5.70
2024-01-11T08:10:40.546Z,8.60
2024-01-11T08:12:48.725Z,10.00
2024-01-11T08:14:57.320Z,10.00
2024-01-11T08:17:06.297Z,8.80
2024-01-11T08:19:15.650Z,8.10
2024-01-11T08:21:24.001Z,8.00
2024-01-11T08:23:32.169Z,4.70
2024-01-11T08:25:40.340Z,7.40
2024-01-11T08:27:48.568Z,7.90
2024-01-11T08:29:56.674Z,7.20
2024-01-11T08:32:15.329Z,6.10
2024-01-11T08:34:32.536Z,9.80
2024-01-11T08:36:41.135Z,8.70
2024-01-11T08:38:49.887Z,9.50
2024-01-11T08:40:58.167Z,9.10
2024-01-11T08:43:07.762Z,8.40
2024-01-11T08:45:19.524Z,7.80
2024-01-11T08:47:28.251Z,9.50
2024-01-11T08:49:38.759Z,9.50
2024-01-11T08:51:47.829Z,9.80
2024-01-11T08:53:55.968Z,5.80
2024-01-11T08:56:04.235Z,14.40
2024-01-11T08:58:13.444Z,11.10
2024-01-11T09:00:22.472Z,9.70
2024-01-11T09:02:30.644Z,9.60
2024-01-11T09:04:38.800Z,9.00
2024-01-11T09:06:47.240Z,9.00
2024-01-11T09:08:55.517Z,9.90
2024-01-11T09:11:04.436Z,10.60
2024-01-11T09:13:14.798Z,10.80
2024-01-11T09:15:23.386Z,10.60
2024-01-11T09:17:31.777Z,9.20
2024-01-11T09:19:41.483Z,12.10
2024-01-11T09:21:49.982Z,10.70
2024-01-11T09:23:58.217Z,10.50
2024-01-11T09:26:07.268Z,10.20
2024-01-11T09:28:16.664Z,10.50
2024-01-11T09:30:24.789Z,10.10
2024-01-11T09:32:33.475Z,9.60
2024-01-11T09:34:41.975Z,9.50
2024-01-11T09:36:50.147Z,10.00
2024-01-11T09:38:58.449Z,11.40
2024-01-11T09:41:13.299Z,9.80
2024-01-11T09:43:23.510Z,11.90
2024-01-11T09:45:31.601Z,12.10
2024-01-11T09:47:40.950Z,11.70
2024-01-11T09:49:53.370Z,11.60
2024-01-11T09:52:02.634Z,10.40
2024-01-11T09:54:12.794Z,11.00
2024-01-11T09:56:21.425Z,8.40
2024-01-11T09:58:29.629Z,10.60
2024-01-11T10:00:38.559Z,11.10
2024-01-11T10:02:46.968Z,9.40
2024-01-11T10:04:55.346Z,9.10
2024-01-11T10:07:06.883Z,12.40
2024-01-11T10:09:15.630Z,12.70
2024-01-11T10:11:23.845Z,11.20
2024-01-11T10:13:33.941Z,12.00
2024-01-11T10:15:42.094Z,11.90
2024-01-11T10:17:50.396Z,10.60
2024-01-11T10:20:00.745Z,11.70
2024-01-11T10:22:14.027Z,13.20
2024-01-11T10:24:27.366Z,13.60
2024-01-11T10:26:36.224Z,11.90
2024-01-11T10:28:47.752Z,12.50
2024-01-11T10:30:56.755Z,8.80
2024-01-11T10:33:06.640Z,12.20
2024-01-11T10:35:15.109Z,11.80
2024-01-11T10:37:25.008Z,12.20
2024-01-11T10:39:35.985Z,12.60
2024-01-11T10:41:52.188Z,11.90
2024-01-11T10:44:03.960Z,11.20
2024-01-11T10:46:15.581Z,12.00
2024-01-11T10:48:27.438Z,11.20
2024-01-11T10:50:43.267Z,11.40
2024-01-11T10:53:05.077Z,11.20
2024-01-11T10:55:13.860Z,13.50
2024-01-11T10:57:23.117Z,12.50
2024-01-11T10:59:33.558Z,12.40
2024-01-11T11:01:43.336Z,12.00
2024-01-11T11:03:54.926Z,9.80
2024-01-11T11:06:04.837Z,11.60
2024-01-11T11:08:14.846Z,12.60
2024-01-11T11:10:23.450Z,11.60
2024-01-11T11:12:33.590Z,9.40
2024-01-11T11:14:42.764Z,11.90
2024-01-11T11:16:51.179Z,13.60
2024-01-11T11:19:00.123Z,13.60
2024-01-11T11:21:13.130Z,12.20
2024-01-11T11:23:22.175Z,12.20
2024-01-11T11:25:32.141Z,13.60
2024-01-11T11:27:40.393Z,13.50
2024-01-11T11:29:53.183Z,12.30
2024-01-11T11:32:01.464Z,11.00
2024-01-11T11:34:13.257Z,11.10
2024-01-11T11:36:30.758Z,11.70
2024-01-11T11:38:39.595Z,12.90
2024-01-11T11:40:50.926Z,12.90
2024-01-11T11:42:59.133Z,11.90
2024-01-11T11:45:11.755Z,12.50
2024-01-11T11:47:26.828Z,13.10
2024-01-11T11:50:05.562Z,11.20
2024-01-11T11:52:19.977Z,12.40
2024-01-11T11:54:29.008Z,12.20
2024-01-11T11:56:38.609Z,13.60
2024-01-11T11:58:48.591Z,13.30
2024-01-11T12:00:57.306Z,15.70
2024-01-11T12:03:07.200Z,14.50
2024-01-11T12:05:15.919Z,13.30
2024-01-11T12:07:25.720Z,13.30
2024-01-11T12:09:33.911Z,13.40
2024-01-11T12:11:42.944Z,14.10
2024-01-11T12:13:53.676Z,12.70
2024-01-11T12:16:02.231Z,12.50
2024-01-11T12:18:11.362Z,13.40
2024-01-11T12:20:22.639Z,15.70
2024-01-11T12:22:31.221Z,14.50
2024-01-11T12:24:39.605Z,13.40
2024-01-11T12:26:48.306Z,13.90
2024-01-11T12:28:57.152Z,14.20
2024-01-11T12:31:05.473Z,14.80
2024-01-11T12:33:14.824Z,13.50
2024-01-11T12:35:24.029Z,13.50
2024-01-11T12:37:34.197Z,12.90
2024-01-11T12:39:43.585Z,11.40
2024-01-11T12:41:52.188Z,14.40
2024-01-11T12:44:00.776Z,15.70
2024-01-11T12:46:09.243Z,15.30
2024-01-11T12:48:20.156Z,13.50
2024-01-11T12:50:29.824Z,13.00
2024-01-11T12:52:37.960Z,13.80
2024-01-11T12:54:47.419Z,12.20
2024-01-11T12:56:55.954Z,14.10
2024-01-11T12:59:12.357Z,14.10
2024-01-11T13:01:21.398Z,13.70
2024-01-11T13:03:30.133Z,14.40
2024-01-11T13:05:39.286Z,13.70
2024-01-11T13:07:47.862Z,15.00
2024-01-11T13:09:56.212Z,14.70
2024-01-11T13:12:04.555Z,14.80
2024-01-11T13:14:20.351Z,14.10
2024-01-11T13:16:30.783Z,14.90
2024-01-11T13:18:39.062Z,15.50
2024-01-11T13:20:48.431Z,16.90
2024-01-11T13:23:16.602Z,17.10
2024-01-11T13:25:25.635Z,17.00
2024-01-11T13:27:33.892Z,14.40
2024-01-11T13:29:42.049Z,14.20
2024-01-11T13:31:50.152Z,15.80
2024-01-11T13:33:58.424Z,13.90
2024-01-11T13:36:08.841Z,12.40
2024-01-11T13:38:17.456Z,13.90
2024-01-11T13:40:25.878Z,13.80
2024-01-11T13:42:33.965Z,11.00
2024-01-11T13:44:43.806Z,10.40
2024-01-11T13:46:52.000Z,11.70
2024-01-11T13:49:00.556Z,8.80
2024-01-11T13:51:11.351Z,10.10
2024-01-11T13:53:19.753Z,10.70
2024-01-11T13:55:28.445Z,8.60
2024-01-11T13:57:36.774Z,9.30
2024-01-11T13:59:44.908Z,9.50
2024-01-11T14:01:53.215Z,9.70
2024-01-11T14:04:01.650Z,7.50
2024-01-11T14:06:10.340Z,9.30
2024-01-11T14:08:18.671Z,8.70
2024-01-11T14:10:28.289Z,7.90
2024-01-11T14:12:37.029Z,7.80
2024-01-11T14:14:45.767Z,8.50
2024-01-11T14:16:54.059Z,7.10
2024-01-11T14:19:02.993Z,5.60
2024-01-11T14:21:12.783Z,7.10
2024-01-11T14:23:21.170Z,7.80
2024-01-11T14:25:30.692Z,7.90
2024-01-11T14:27:39.553Z,6.60
2024-01-11T14:29:47.831Z,6.80
2024-01-11T14:31:56.212Z,6.90
2024-01-11T14:34:04.630Z,6.00
2024-01-11T14:36:13.816Z,6.40
2024-01-11T14:38:22.158Z,6.70
2024-01-11T14:40:30.368Z,6.30
2024-01-11T14:42:39.122Z,5.90
2024-01-11T14:44:47.529Z,7.10
2024-01-11T14:46:55.948Z,7.50
2024-01-11T14:49:05.777Z,6.40
2024-01-11T14:51:13.951Z,6.80
2024-01-11T14:53:22.210Z,5.80
2024-01-11T14:55:30.428Z,5.90
2024-01-11T14:57:38.597Z,5.90
2024-01-11T14:59:47.168Z,5.60
2024-01-11T15:01:55.376Z,6.00
2024-01-11T15:04:03.745Z,6.30
2024-01-11T15:06:12.003Z,6.80
2024-01-11T15:08:20.985Z,6.30
2024-01-11T15:10:29.590Z,6.20
2024-01-11T15:12:38.121Z,9.30
2024-01-11T15:14:46.280Z,11.40
2024-01-11T15:16:54.622Z,10.80
2024-01-11T15:19:02.791Z,9.70
2024-01-11T15:21:11.056Z,8.90
2024-01-11T15:23:19.571Z,11.70
2024-01-11T15:25:28.165Z,9.10
2024-01-11T15:27:36.862Z,9.10
2024-01-11T15:29:45.055Z,9.50
2024-01-11T15:31:53.252Z,8.30
2024-01-11T15:34:02.830Z,8.40
2024-01-11T15:36:12.235Z,6.80
2024-01-11T15:38:20.410Z,7.10
2024-01-11T15:40:28.620Z,6.10
2024-01-11T15:42:38.561Z,18.80
2024-01-11T15:44:46.954Z,15.30
2024-01-11T15:46:56.183Z,11.10
2024-01-11T15:49:04.955Z,15.70
2024-01-11T15:51:13.475Z,11.80
2024-01-11T15:53:21.773Z,10.00
2024-01-11T15:55:30.050Z,7.40
2024-01-11T15:57:38.611Z,8.40
2024-01-11T15:59:46.841Z,8.00
2024-01-11T16:02:03.408Z,7.00
2024-01-11T16:04:16.862Z,6.50
2024-01-11T16:06:25.245Z,8.20
2024-01-11T16:08:34.609Z,7.50
2024-01-11T16:10:42.898Z,8.20
2024-01-11T16:12:51.094Z,8.80
2024-01-11T16:14:59.984Z,9.30
2024-01-11T16:17:08.739Z,7.90
2024-01-11T16:19:18.938Z,6.80
2024-01-11T16:21:29.835Z,6.70
2024-01-11T16:23:38.153Z,7.20
2024-01-11T16:25:46.600Z,8.60
2024-01-11T16:27:54.900Z,8.90
2024-01-11T16:30:04.681Z,9.80
2024-01-11T16:32:13.809Z,8.80
2024-01-11T16:34:22.267Z,10.40
2024-01-11T16:36:30.642Z,8.60
2024-01-11T16:38:39.822Z,11.10
2024-01-11T16:40:48.188Z,9.40
2024-01-11T16:42:56.392Z,7.60
2024-01-11T16:45:05.708Z,11.40
2024-01-11T16:47:14.002Z,9.70
2024-01-11T16:49:23.507Z,8.40
2024-01-11T16:51:31.907Z,9.70
2024-01-11T16:53:43.028Z,9.20
2024-01-11T16:55:51.342Z,9.40
2024-01-11T16:57:59.755Z,8.50
2024-01-11T17:00:11.095Z,10.00
2024-01-11T17:02:19.370Z,10.70
2024-01-11T17:04:27.629Z,10.90
2024-01-11T17:06:37.306Z,9.80
2024-01-11T17:08:45.497Z,12.30
2024-01-11T17:10:53.799Z,12.40
2024-01-11T17:13:02.459Z,12.10
2024-01-11T17:15:12.923Z,12.80
2024-01-11T17:17:21.395Z,11.80
2024-01-11T17:19:29.662Z,12.70
2024-01-11T17:21:37.883Z,11.20
2024-01-11T17:23:46.138Z,10.40
2024-01-11T17:25:54.590Z,11.50
2024-01-11T17:28:02.967Z,13.70
2024-01-11T17:30:12.841Z,11.30
2024-01-11T17:32:21.289Z,11.30
2024-01-11T17:34:29.625Z,9.10
2024-01-11T17:36:38.219Z,10.20
2024-01-11T17:38:46.516Z,11.20
2024-01-11T17:40:55.027Z,9.70
2024-01-11T17:43:03.640Z,10.20
2024-01-11T17:45:12.829Z,10.00
2024-01-11T17:47:22.027Z,10.90
2024-01-11T17:49:30.392Z,10.40
2024-01-11T17:51:39.458Z,10.00
2024-01-11T17:53:49.542Z,10.40
2024-01-11T17:55:57.852Z,8.70
2024-01-11T17:58:06.791Z,10.60
2024-01-11T18:00:16.707Z,11.40
2024-01-11T18:02:25.225Z,11.00
2024-01-11T18:04:33.441Z,10.80
2024-01-11T18:06:42.225Z,9.70
2024-01-11T18:08:50.995Z,13.10
2024-01-11T18:10:59.168Z,10.90
2024-01-11T18:13:07.679Z,9.90
2024-01-11T18:15:15.921Z,10.10
2024-01-11T18:17:24.086Z,9.60
2024-01-11T18:19:32.452Z,9.80
2024-01-11T18:21:40.835Z,10.00
2024-01-11T18:23:49.299Z,8.60
2024-01-11T18:25:57.794Z,8.30
2024-01-11T18:28:07.205Z,9.30
2024-01-11T18:30:16.901Z,10.50
2024-01-11T18:32:25.284Z,9.40
2024-01-11T18:34:35.232Z,9.60
2024-01-11T18:36:49.642Z,7.70
2024-01-11T18:39:00.089Z,7.60
2024-01-11T18:41:09.526Z,7.70
2024-01-11T18:43:18.900Z,7.30
2024-01-11T18:45:27.781Z,7.60
2024-01-11T18:47:36.086Z,6.20
2024-01-11T18:49:45.954Z,7.80
2024-01-11T18:51:54.649Z,8.10
2024-01-11T18:54:02.835Z,8.20
2024-01-11T18:56:17.496Z,8.40
2024-01-11T18:58:25.672Z,8.00
2024-01-11T19:00:36.021Z,8.40
2024-01-11T19:02:45.498Z,8.40
2024-01-11T19:04:55.085Z,7.80
2024-01-11T19:07:03.319Z,8.70
2024-01-11T19:09:11.439Z,7.90
2024-01-11T19:11:19.603Z,8.10
2024-01-11T19:13:28.132Z,6.00
2024-01-11T19:15:37.577Z,7.80
2024-01-11T19:17:46.542Z,15.40
2024-01-11T19:19:54.802Z,15.60
2024-01-11T19:22:02.924Z,11.80
2024-01-11T19:24:11.056Z,9.50
2024-01-11T19:26:19.321Z,17.70
2024-01-11T19:28:27.901Z,14.60
2024-01-11T19:30:38.662Z,9.40
2024-01-11T19:32:47.006Z,10.90
2024-01-11T19:34:55.335Z,11.60
2024-01-11T19:37:03.495Z,10.70
2024-01-11T19:39:11.694Z,9.80
2024-01-11T19:41:25.411Z,10.50
2024-01-11T19:43:34.604Z,10.90
2024-01-11T19:45:43.095Z,10.10
2024-01-11T19:47:51.476Z,10.50
2024-01-11T19:49:59.806Z,11.20
2024-01-11T19:52:08.245Z,12.10
2024-01-11T19:54:16.445Z,14.10
2024-01-11T19:56:31.326Z,14.30
2024-01-11T19:58:39.922Z,14.20
2024-01-11T20:00:48.090Z,13.00
2024-01-11T20:02:58.946Z,12.90
2024-01-11T20:05:08.725Z,11.60
2024-01-11T20:07:16.886Z,10.60
2024-01-11T20:09:24.991Z,10.80
2024-01-11T20:11:33.514Z,13.00
2024-01-11T20:13:42.436Z,15.00
2024-01-11T20:15:50.642Z,18.80
2024-01-11T20:17:59.671Z,12.90
2024-01-11T20:20:10.596Z,13.40
2024-01-11T20:22:19.099Z,13.10
2024-01-11T20:24:27.266Z,11.30
2024-01-11T20:26:36.328Z,13.40
2024-01-11T20:28:44.814Z,13.20
2024-01-11T20:30:52.956Z,13.40
2024-01-11T20:33:01.529Z,12.00
2024-01-11T20:35:10.725Z,11.00
2024-01-11T20:37:19.788Z,10.40
2024-01-11T20:39:27.978Z,12.10
2024-01-11T20:41:43.634Z,11.50
2024-01-11T20:43:53.498Z,10.90
2024-01-11T20:46:02.840Z,9.70
2024-01-11T20:48:11.715Z,9.70
2024-01-11T20:50:20.373Z,9.70
2024-01-11T20:52:28.582Z,9.10
2024-01-11T20:54:39.330Z,9.60
2024-01-11T20:56:47.968Z,11.30
2024-01-11T20:58:56.285Z,10.00
2024-01-11T21:01:04.891Z,13.20
2024-01-11T21:03:13.477Z,13.40
2024-01-11T21:05:22.144Z,12.20
2024-01-11T21:07:30.611Z,11.30
2024-01-11T21:09:38.876Z,10.30
2024-01-11T21:11:47.106Z,13.70
2024-01-11T21:13:56.201Z,11.70
2024-01-11T21:16:04.424Z,12.90
2024-01-11T21:18:14.314Z,12.90
2024-01-11T21:20:22.632Z,11.40
2024-01-11T21:22:30.818Z,11.40
2024-01-11T21:24:39.807Z,11.80
2024-01-11T21:26:57.101Z,11.40
2024-01-11T21:29:05.450Z,11.90
2024-01-11T21:31:13.705Z,12.00
2024-01-11T21:33:22.021Z,11.10
2024-01-11T21:35:30.363Z,9.80
2024-01-11T21:37:38.732Z,9.70
2024-01-11T21:39:46.795Z,8.70
2024-01-11T21:41:55.050Z,9.50
2024-01-11T21:44:03.816Z,9.70
2024-01-11T21:46:12.549Z,10.30
2024-01-11T21:48:20.908Z,9.30
2024-01-11T21:50:32.160Z,8.70
2024-01-11T21:52:40.808Z,9.10
2024-01-11T21:54:49.064Z,9.30
2024-01-11T21:56:59.457Z,8.70
2024-01-11T21:59:09.123Z,8.90
2024-01-11T22:01:17.360Z,8.20
2024-01-11T22:03:26.909Z,8.10
2024-01-11T22:05:38.966Z,8.40
2024-01-11T22:07:47.172Z,8.00
2024-01-11T22:09:55.335Z,8.50
2024-01-11T22:12:03.681Z,9.50
2024-01-11T22:14:12.698Z,9.20
2024-01-11T22:16:21.497Z,9.70
2024-01-11T22:20:39.404Z,8.90
2024-01-11T22:22:48.249Z,7.90
2024-01-11T22:24:56.847Z,8.40
2024-01-11T22:27:05.546Z,7.70
2024-01-11T22:29:14.549Z,8.70
2024-01-11T22:31:23.270Z,8.00
2024-01-11T22:33:31.844Z,7.70
2024-01-11T22:35:40.424Z,9.50
2024-01-11T22:37:48.899Z,7.90
2024-01-11T22:39:57.183Z,8.30
2024-01-11T22:42:06.014Z,8.60
2024-01-11T22:44:14.524Z,7.00
2024-01-11T22:46:23.179Z,7.50
2024-01-11T22:48:31.548Z,8.00
2024-01-11T22:50:40.062Z,7.40
2024-01-11T22:52:48.310Z,8.30
2024-01-11T22:54:56.518Z,8.40
2024-01-11T22:57:04.885Z,43.70
2024-01-11T22:59:13.763Z,34.90
2024-01-11T23:01:22.311Z,11.20
2024-01-11T23:03:30.620Z,9.60
2024-01-11T23:05:38.972Z,8.60
2024-01-11T23:07:48.422Z,8.70
2024-01-11T23:09:56.745Z,11.60
2024-01-11T23:12:06.882Z,9.10
2024-01-11T23:14:19.438Z,8.90
2024-01-11T23:16:28.591Z,8.60
2024-01-11T23:18:39.175Z,8.70
2024-01-11T23:20:47.686Z,9.60
2024-01-11T23:22:55.937Z,8.60
2024-01-11T23:25:04.121Z,7.40
2024-01-11T23:27:12.648Z,7.50
2024-01-11T23:29:20.857Z,7.70
2024-01-11T23:31:29.715Z,8.10
2024-01-11T23:33:38.283Z,7.20
2024-01-11T23:35:46.990Z,7.20
2024-01-11T23:37:55.498Z,7.70
2024-01-11T23:40:05.010Z,6.80
2024-01-11T23:42:14.305Z,7.50
2024-01-11T23:44:22.556Z,8.00
2024-01-11T23:46:30.679Z,6.90
2024-01-11T23:48:39.459Z,6.80
2024-01-11T23:50:48.325Z,6.50
2024-01-11T23:52:57.052Z,7.10
2024-01-11T23:55:05.605Z,7.40
2024-01-11T23:57:13.907Z,7.00
2024-01-11T23:59:22.173Z,7.60
